createdAt,value
2018-09-28T00:00:57.219Z,69.52
2018-09-28T00:03:24.882Z,69.43
2018-09-28T00:05:52.798Z,69.50
2018-09-28T00:08:20.389Z,69.43
2018-09-28T00:10:47.894Z,69.44
2018-09-28T00:13:15.530Z,69.41
2018-09-28T00:15:43.067Z,69.66
2018-09-28T00:18:10.609Z,70.05
2018-09-28T00:20:38.210Z,70.42
2018-09-28T00:23:06.231Z,70.70
2018-09-28T00:25:33.906Z,70.84
2018-09-28T00:28:01.418Z,70.87
2018-09-28T00:30:28.967Z,70.66
2018-09-28T00:32:56.505Z,69.87
2018-09-28T00:35:24.063Z,69.47
2018-09-28T00:37:51.711Z,69.41
2018-09-28T00:40:19.234Z,69.64
2018-09-28T00:42:46.766Z,69.10
2018-09-28T00:45:14.322Z,68.45
2018-09-28T00:47:41.847Z,68.33
2018-09-28T00:50:09.571Z,68.50
2018-09-28T00:52:37.124Z,68.97
2018-09-28T00:55:04.691Z,68.94
2018-09-28T00:57:32.228Z,68.96
2018-09-28T00:59:59.781Z,69.00
2018-09-28T01:02:28.015Z,68.49
2018-09-28T01:04:55.529Z,68.61
2018-09-28T01:07:23.046Z,68.64
2018-09-28T01:09:50.616Z,69.29
2018-09-28T01:12:18.122Z,69.11
2018-09-28T01:14:45.688Z,69.38
2018-09-28T01:17:13.526Z,69.57
2018-09-28T01:19:41.124Z,69.92
2018-09-28T01:22:08.692Z,69.66
2018-09-28T01:24:36.270Z,70.13
2018-09-28T01:27:03.818Z,69.41
2018-09-28T01:29:31.455Z,69.38
2018-09-28T01:31:58.981Z,70.50
2018-09-28T01:34:26.739Z,70.22
2018-09-28T01:36:54.327Z,70.38
2018-09-28T01:39:21.903Z,70.47
2018-09-28T01:41:49.453Z,70.76
2018-09-28T01:44:16.980Z,70.69
2018-09-28T01:46:44.861Z,70.95
2018-09-28T01:49:12.394Z,70.80
2018-09-28T01:51:39.930Z,70.87
2018-09-28T01:54:07.520Z,71.28
2018-09-28T01:56:35.647Z,71.07
2018-09-28T01:59:03.235Z,71.21
2018-09-28T02:01:30.750Z,70.92
2018-09-28T02:03:58.659Z,70.90
2018-09-28T02:06:26.211Z,70.52
2018-09-28T02:08:53.830Z,70.77
2018-09-28T02:11:21.438Z,70.95
2018-09-28T02:13:48.974Z,71.25
2018-09-28T02:16:16.545Z,71.50
2018-09-28T02:18:45.083Z,71.76
2018-09-28T02:21:12.686Z,71.78
2018-09-28T02:23:40.303Z,72.04
2018-09-28T02:26:07.866Z,71.99
2018-09-28T02:28:35.425Z,72.31
2018-09-28T02:31:02.963Z,72.08
2018-09-28T02:33:30.532Z,72.40
2018-09-28T02:35:58.061Z,72.36
2018-09-28T02:38:25.603Z,72.23
2018-09-28T02:40:53.165Z,72.18
2018-09-28T02:43:20.733Z,72.27
2018-09-28T02:45:48.306Z,72.06
2018-09-28T02:48:15.847Z,72.33
2018-09-28T02:50:43.399Z,72.59
2018-09-28T02:53:15.455Z,72.77
2018-09-28T02:55:43.012Z,72.78
2018-09-28T02:58:10.559Z,72.98
2018-09-28T03:00:38.143Z,72.73
2018-09-28T03:03:05.719Z,72.64
2018-09-28T03:05:33.238Z,73.34
2018-09-28T03:08:01.057Z,73.20
2018-09-28T03:10:28.663Z,73.07
2018-09-28T03:12:56.235Z,73.01
2018-09-28T03:15:23.774Z,72.75
2018-09-28T03:17:51.346Z,71.98
2018-09-28T03:20:18.918Z,71.95
2018-09-28T03:22:46.439Z,71.79
2018-09-28T03:25:14.048Z,72.16
2018-09-28T03:27:41.619Z,72.72
2018-09-28T03:30:09.499Z,73.21
2018-09-28T03:32:37.050Z,72.90
2018-09-28T03:35:04.622Z,73.11
2018-09-28T03:37:32.182Z,73.52
2018-09-28T03:39:59.714Z,72.91
2018-09-28T03:42:27.270Z,73.00
2018-09-28T03:44:54.774Z,73.07
2018-09-28T03:47:22.426Z,73.14
2018-09-28T03:49:50.070Z,73.56
2018-09-28T03:52:17.660Z,72.94
2018-09-28T03:54:45.509Z,72.82
2018-09-28T03:57:13.087Z,73.19
2018-09-28T03:59:40.618Z,73.44
2018-09-28T04:02:08.179Z,73.85
2018-09-28T04:04:35.870Z,73.86
2018-09-28T04:07:03.402Z,73.99
2018-09-28T04:09:30.978Z,73.61
2018-09-28T04:11:58.515Z,74.17
2018-09-28T04:14:26.088Z,73.86
2018-09-28T04:16:53.624Z,73.67
2018-09-28T04:19:21.175Z,74.01
2018-09-28T04:21:56.238Z,74.02
2018-09-28T04:24:23.795Z,73.95
2018-09-28T04:26:51.339Z,73.99
2018-09-28T04:29:18.875Z,74.08
2018-09-28T04:31:46.447Z,73.73
2018-09-28T04:34:14.010Z,74.52
2018-09-28T04:36:41.566Z,74.85
2018-09-28T04:39:09.570Z,74.84
2018-09-28T04:41:37.100Z,74.66
2018-09-28T04:44:04.634Z,74.73
2018-09-28T04:46:32.553Z,75.46
2018-09-28T04:49:00.398Z,75.57
2018-09-28T04:51:28.169Z,75.15
2018-09-28T04:53:55.751Z,75.48
2018-09-28T04:56:23.327Z,75.43
2018-09-28T04:58:51.253Z,75.30
2018-09-28T05:01:19.570Z,75.50
2018-09-28T05:03:47.136Z,75.35
2018-09-28T05:06:14.960Z,74.87
2018-09-28T05:08:42.483Z,74.67
2018-09-28T05:11:10.114Z,74.62
2018-09-28T05:13:37.687Z,74.71
2018-09-28T05:16:05.270Z,74.47
2018-09-28T05:18:32.951Z,74.99
2018-09-28T05:21:00.498Z,74.80
2018-09-28T05:23:28.037Z,75.52
2018-09-28T05:25:55.602Z,75.69
2018-09-28T05:28:23.138Z,75.56
2018-09-28T05:30:53.967Z,75.92
2018-09-28T05:33:18.457Z,75.74
2018-09-28T05:35:46.059Z,75.71
2018-09-28T05:38:13.615Z,75.34
2018-09-28T05:40:41.174Z,75.22
2018-09-28T05:43:09.054Z,75.34
2018-09-28T05:45:36.833Z,75.50
2018-09-28T05:48:04.422Z,75.50
2018-09-28T05:50:31.992Z,75.63
2018-09-28T05:52:59.807Z,75.46
2018-09-28T05:55:27.379Z,74.96
2018-09-28T05:58:00.638Z,74.35
2018-09-28T06:00:33.859Z,73.65
2018-09-28T06:03:08.958Z,72.54
2018-09-28T06:05:38.738Z,72.06
2018-09-28T06:08:06.514Z,71.02
2018-09-28T06:10:34.158Z,70.45
2018-09-28T06:13:01.788Z,69.56
2018-09-28T06:15:29.410Z,68.21
2018-09-28T06:17:57.080Z,67.64
2018-09-28T06:20:26.227Z,66.11
2018-09-28T06:22:54.058Z,65.29
2018-09-28T06:25:21.652Z,65.64
2018-09-28T06:27:49.566Z,63.86
2018-09-28T06:30:17.131Z,63.22
2018-09-28T06:32:44.678Z,62.33
2018-09-28T06:35:12.266Z,62.01
2018-09-28T06:37:39.774Z,61.64
2018-09-28T06:40:07.363Z,60.51
2018-09-28T06:42:35.146Z,59.42
2018-09-28T06:45:02.817Z,58.83
2018-09-28T06:47:30.346Z,58.50
2018-09-28T06:49:58.539Z,58.67
2018-09-28T06:52:26.535Z,58.53
2018-09-28T06:54:54.075Z,58.15
2018-09-28T06:57:21.629Z,57.77
2018-09-28T06:59:49.247Z,56.87
2018-09-28T07:02:16.718Z,56.26
2018-09-28T07:04:44.673Z,55.96
2018-09-28T07:07:12.218Z,55.40
2018-09-28T07:09:39.756Z,55.51
2018-09-28T07:12:07.410Z,55.76
2018-09-28T07:14:34.922Z,53.81
2018-09-28T07:17:02.512Z,52.39
2018-09-28T07:19:30.046Z,51.31
2018-09-28T07:21:57.598Z,48.53
2018-09-28T07:24:26.104Z,46.56
2018-09-28T07:26:53.674Z,42.65
2018-09-28T07:29:21.219Z,39.74
2018-09-28T07:31:48.765Z,37.88
2018-09-28T07:34:16.287Z,35.74
2018-09-28T07:36:44.028Z,33.83
2018-09-28T07:39:11.946Z,32.42
2018-09-28T07:41:39.573Z,32.01
2018-09-28T07:44:07.426Z,30.58
2018-09-28T07:46:34.998Z,28.69
2018-09-28T07:49:02.621Z,27.66
2018-09-28T07:51:30.399Z,27.27
2018-09-28T07:53:58.049Z,25.79
2018-09-28T07:56:25.706Z,27.42
2018-09-28T07:58:53.266Z,26.22
2018-09-28T08:01:20.826Z,27.30
2018-09-28T08:03:48.458Z,26.02
2018-09-28T08:06:16.007Z,26.38
2018-09-28T08:08:43.577Z,27.39
2018-09-28T08:11:11.132Z,26.57
2018-09-28T08:13:38.670Z,25.50
2018-09-28T08:16:06.414Z,24.80
2018-09-28T08:18:34.014Z,24.54
2018-09-28T08:21:01.532Z,23.65
2018-09-28T08:23:29.190Z,22.97
2018-09-28T08:25:56.645Z,24.11
2018-09-28T08:28:24.202Z,23.42
2018-09-28T08:30:51.740Z,23.05
2018-09-28T08:33:19.854Z,22.86
2018-09-28T08:35:47.411Z,20.65
2018-09-28T08:38:14.966Z,20.72
2018-09-28T08:40:42.494Z,20.22
2018-09-28T08:43:10.058Z,19.01
2018-09-28T08:45:37.593Z,19.93
2018-09-28T08:48:05.631Z,19.75
2018-09-28T08:50:33.194Z,19.61
2018-09-28T08:53:00.827Z,17.49
2018-09-28T08:55:28.375Z,18.66
2018-09-28T08:57:55.906Z,19.05
2018-09-28T09:00:23.483Z,18.41
2018-09-28T09:02:51.042Z,18.09
2018-09-28T09:05:18.629Z,17.05
2018-09-28T09:07:46.362Z,16.40
2018-09-28T09:10:13.939Z,16.58
2018-09-28T09:12:41.756Z,16.79
2018-09-28T09:15:09.334Z,16.29
2018-09-28T09:17:36.915Z,15.41
2018-09-28T09:20:04.507Z,15.72
2018-09-28T09:22:32.039Z,14.85
2018-09-28T09:24:59.658Z,14.31
2018-09-28T09:27:27.284Z,13.78
2018-09-28T09:29:54.822Z,14.35
2018-09-28T09:32:22.346Z,14.66
2018-09-28T09:34:49.903Z,16.01
2018-09-28T09:37:17.466Z,15.78
2018-09-28T09:39:45.042Z,15.91
2018-09-28T09:42:13.219Z,16.02
2018-09-28T09:44:41.151Z,16.49
2018-09-28T09:47:08.758Z,16.89
2018-09-28T09:49:36.363Z,17.87
2018-09-28T09:52:04.073Z,18.80
2018-09-28T09:54:31.627Z,18.97
2018-09-28T09:56:59.165Z,19.14
2018-09-28T09:59:26.707Z,19.50
2018-09-28T10:02:00.038Z,19.77
2018-09-28T10:04:27.575Z,21.18
2018-09-28T10:06:55.111Z,21.91
2018-09-28T10:09:22.822Z,21.04
2018-09-28T10:11:50.362Z,21.43
2018-09-28T10:14:17.881Z,22.78
2018-09-28T10:16:45.454Z,22.48
2018-09-28T10:19:13.010Z,22.29
2018-09-28T10:21:40.593Z,20.75
2018-09-28T10:24:08.116Z,20.70
2018-09-28T10:26:35.659Z,20.90
2018-09-28T10:29:03.359Z,20.58
2018-09-28T10:31:30.890Z,18.98
2018-09-28T10:33:58.483Z,19.27
2018-09-28T10:36:26.058Z,19.39
2018-09-28T10:38:53.618Z,18.61
2018-09-28T10:41:21.181Z,17.59
2018-09-28T10:43:48.717Z,17.86
2018-09-28T10:46:16.294Z,18.24
2018-09-28T10:48:43.859Z,18.80
2018-09-28T10:51:11.411Z,19.32
2018-09-28T10:53:39.038Z,19.70
2018-09-28T10:56:06.593Z,20.98
2018-09-28T10:58:34.177Z,20.38
2018-09-28T11:01:01.839Z,21.56
2018-09-28T11:03:29.430Z,22.73
2018-09-28T11:05:57.290Z,23.94
2018-09-28T11:08:24.895Z,24.79
2018-09-28T11:10:52.381Z,25.25
2018-09-28T11:13:20.139Z,25.76
2018-09-28T11:15:47.896Z,25.80
2018-09-28T11:18:15.518Z,26.75
2018-09-28T11:20:43.082Z,27.21
2018-09-28T11:23:10.638Z,28.38
2018-09-28T11:25:38.219Z,28.48
2018-09-28T11:28:06.502Z,28.94
2018-09-28T11:30:34.074Z,29.62
2018-09-28T11:33:01.675Z,30.19
2018-09-28T11:35:29.245Z,29.93
2018-09-28T11:37:56.795Z,30.50
2018-09-28T11:40:24.643Z,30.73
2018-09-28T11:42:52.305Z,31.29
2018-09-28T11:45:19.881Z,31.36
2018-09-28T11:47:47.430Z,32.34
2018-09-28T11:50:15.001Z,32.72
2018-09-28T11:52:42.582Z,32.84
2018-09-28T11:55:10.119Z,33.14
2018-09-28T11:57:37.738Z,34.00
2018-09-28T12:00:05.384Z,33.08
2018-09-28T12:02:32.908Z,33.49
2018-09-28T12:05:00.593Z,33.58
2018-09-28T12:07:28.129Z,32.87
2018-09-28T12:09:55.762Z,32.91
2018-09-28T12:12:23.414Z,32.93
2018-09-28T12:14:50.941Z,33.92
2018-09-28T12:17:18.511Z,33.97
2018-09-28T12:19:46.077Z,33.97
2018-09-28T12:22:13.645Z,35.05
2018-09-28T12:24:41.340Z,35.13
2018-09-28T12:27:08.883Z,34.77
2018-09-28T12:29:36.382Z,35.27
2018-09-28T12:32:03.999Z,35.24
2018-09-28T12:34:31.624Z,36.09
2018-09-28T12:36:59.186Z,35.88
2018-09-28T12:39:26.789Z,35.96
2018-09-28T12:41:54.346Z,36.36
2018-09-28T12:44:22.066Z,36.34
2018-09-28T12:46:49.559Z,36.14
2018-09-28T12:49:17.126Z,36.06
2018-09-28T12:51:44.694Z,35.98
2018-09-28T12:54:12.257Z,36.47
2018-09-28T12:56:39.877Z,36.89
2018-09-28T12:59:07.462Z,36.25
2018-09-28T13:01:34.978Z,36.48
2018-09-28T13:04:02.612Z,36.22
2018-09-28T13:06:30.221Z,36.33
2018-09-28T13:08:57.772Z,36.55
2018-09-28T13:11:25.334Z,36.55
2018-09-28T13:13:53.229Z,36.97
2018-09-28T13:16:20.791Z,36.58
2018-09-28T13:18:48.431Z,36.62
2018-09-28T13:21:15.942Z,36.54
2018-09-28T13:23:43.795Z,36.11
2018-09-28T13:26:11.355Z,36.61
2018-09-28T13:28:38.926Z,36.30
2018-09-28T13:31:06.584Z,36.42
2018-09-28T13:33:34.186Z,36.46
2018-09-28T13:36:01.927Z,36.27
2018-09-28T13:38:29.553Z,35.44
2018-09-28T13:40:57.010Z,36.33
2018-09-28T13:43:24.582Z,37.75
2018-09-28T13:45:52.152Z,37.48
2018-09-28T13:48:19.790Z,37.70
2018-09-28T13:50:47.582Z,37.37
2018-09-28T13:53:15.098Z,36.99
2018-09-28T13:55:42.697Z,37.78
2018-09-28T13:58:10.312Z,37.99
2018-09-28T14:00:37.880Z,38.51
2018-09-28T14:03:05.831Z,38.20
2018-09-28T14:05:33.379Z,38.24
2018-09-28T14:08:00.899Z,38.30
2018-09-28T14:10:28.477Z,38.23
2018-09-28T14:12:56.036Z,37.68
2018-09-28T14:15:23.582Z,38.20
2018-09-28T14:17:51.718Z,38.89
2018-09-28T14:20:19.297Z,39.47
2018-09-28T14:22:46.918Z,38.70
2018-09-28T14:25:14.470Z,38.64
2018-09-28T14:27:42.069Z,39.09
2018-09-28T14:30:09.643Z,38.77
2018-09-28T14:32:38.131Z,37.41
2018-09-28T14:35:05.780Z,37.34
2018-09-28T14:37:33.421Z,38.93
2018-09-28T14:40:00.975Z,39.18
2018-09-28T14:42:28.562Z,38.64
2018-09-28T14:44:56.458Z,39.49
2018-09-28T14:47:24.023Z,39.05
2018-09-28T14:49:51.653Z,39.10
2018-09-28T14:52:19.357Z,39.53
2018-09-28T14:54:46.884Z,40.03
2018-09-28T14:57:14.802Z,39.74
2018-09-28T14:59:42.353Z,39.82
2018-09-28T15:02:09.944Z,39.32
2018-09-28T15:04:37.814Z,39.51
2018-09-28T15:07:05.607Z,39.54
2018-09-28T15:09:33.112Z,40.03
2018-09-28T15:12:00.702Z,40.12
2018-09-28T15:14:28.321Z,40.28
2018-09-28T15:16:55.822Z,40.76
2018-09-28T15:19:23.398Z,40.16
2018-09-28T15:21:50.982Z,39.93
2018-09-28T15:24:18.543Z,40.53
2018-09-28T15:26:46.113Z,39.74
2018-09-28T15:29:13.755Z,39.41
2018-09-28T15:31:41.603Z,38.65
2018-09-28T15:34:09.144Z,36.77
2018-09-28T15:36:36.762Z,37.25
2018-09-28T15:39:06.470Z,37.33
2018-09-28T15:41:33.998Z,36.65
2018-09-28T15:44:01.595Z,36.84
2018-09-28T15:46:29.186Z,37.41
2018-09-28T15:48:56.726Z,37.75
2018-09-28T15:51:24.309Z,37.39
2018-09-28T15:53:51.898Z,37.90
2018-09-28T15:56:19.825Z,37.78
2018-09-28T15:58:47.370Z,37.63
2018-09-28T16:01:14.930Z,37.60
2018-09-28T16:03:42.509Z,38.37
2018-09-28T16:06:10.046Z,38.23
2018-09-28T16:08:37.600Z,37.66
2018-09-28T16:11:05.330Z,37.57
2018-09-28T16:13:32.884Z,38.22
2018-09-28T16:16:00.418Z,39.16
2018-09-28T16:18:28.034Z,38.56
2018-09-28T16:20:55.678Z,39.07
2018-09-28T16:23:23.233Z,38.92
2018-09-28T16:25:50.810Z,38.54
2018-09-28T16:28:18.373Z,38.60
2018-09-28T16:30:45.944Z,38.59
2018-09-28T16:33:13.526Z,39.12
2018-09-28T16:35:41.219Z,39.30
2018-09-28T16:38:08.763Z,39.40
2018-09-28T16:40:36.405Z,39.65
2018-09-28T16:43:03.963Z,40.11
2018-09-28T16:45:31.543Z,40.02
2018-09-28T16:47:59.115Z,40.35
2018-09-28T16:50:26.673Z,40.40
2018-09-28T16:52:54.309Z,41.20
2018-09-28T16:55:21.974Z,41.22
2018-09-28T16:57:49.615Z,41.65
2018-09-28T17:00:17.182Z,41.58
2018-09-28T17:02:45.094Z,41.77
2018-09-28T17:05:12.654Z,42.18
2018-09-28T17:07:40.216Z,42.33
2018-09-28T17:10:07.831Z,43.10
2018-09-28T17:12:35.385Z,42.99
2018-09-28T17:15:02.990Z,43.10
2018-09-28T17:17:30.555Z,43.18
2018-09-28T17:19:58.098Z,43.72
2018-09-28T17:22:25.728Z,44.06
2018-09-28T17:24:53.259Z,44.53
2018-09-28T17:27:20.973Z,44.33
2018-09-28T17:29:48.563Z,44.42
2018-09-28T17:32:16.138Z,44.82
2018-09-28T17:34:43.709Z,45.50
2018-09-28T17:37:11.293Z,45.47
2018-09-28T17:39:38.878Z,45.94
2018-09-28T17:42:06.496Z,46.30
2018-09-28T17:44:34.062Z,46.40
2018-09-28T17:47:01.621Z,46.37
2018-09-28T17:49:29.207Z,46.47
2018-09-28T17:51:56.774Z,46.17
2018-09-28T17:54:24.690Z,46.47
2018-09-28T17:56:52.285Z,46.68
2018-09-28T17:59:19.862Z,46.63
2018-09-28T18:01:47.431Z,46.94
2018-09-28T18:04:14.981Z,47.00
2018-09-28T18:06:42.546Z,46.95
2018-09-28T18:09:11.113Z,47.38
2018-09-28T18:11:38.666Z,46.84
2018-09-28T18:14:06.442Z,47.21
2018-09-28T18:16:33.939Z,48.01
2018-09-28T18:19:01.505Z,47.82
2018-09-28T18:21:29.087Z,48.59
2018-09-28T18:23:56.755Z,48.41
2018-09-28T18:26:24.309Z,48.59
2018-09-28T18:28:51.946Z,48.48
2018-09-28T18:31:19.562Z,48.58
2018-09-28T18:33:47.089Z,48.17
2018-09-28T18:36:14.839Z,48.50
2018-09-28T18:38:42.466Z,48.18
2018-09-28T18:41:10.049Z,48.22
2018-09-28T18:43:37.587Z,48.35
2018-09-28T18:46:05.165Z,48.72
2018-09-28T18:48:32.862Z,48.90
2018-09-28T18:51:01.002Z,49.02
2018-09-28T18:53:28.618Z,49.13
2018-09-28T18:55:56.310Z,48.72
2018-09-28T18:58:24.479Z,48.69
2018-09-28T19:00:52.116Z,48.32
2018-09-28T19:03:19.775Z,48.32
2018-09-28T19:05:48.217Z,48.72
2018-09-28T19:08:15.752Z,48.56
2018-09-28T19:10:43.432Z,48.85
2018-09-28T19:13:11.317Z,48.85
2018-09-28T19:15:38.870Z,48.75
2018-09-28T19:18:06.450Z,48.92
2018-09-28T19:20:34.353Z,49.32
2018-09-28T19:23:01.933Z,48.70
2018-09-28T19:25:29.503Z,49.60
2018-09-28T19:27:57.261Z,49.90
2018-09-28T19:30:24.805Z,49.95
2018-09-28T19:32:52.411Z,50.37
2018-09-28T19:35:20.077Z,50.82
2018-09-28T19:37:47.675Z,51.36
2018-09-28T19:40:15.250Z,51.58
2018-09-28T19:42:42.863Z,52.60
2018-09-28T19:45:10.450Z,52.66
2018-09-28T19:47:38.089Z,53.52
2018-09-28T19:50:06.061Z,54.39
2018-09-28T19:52:33.599Z,55.08
2018-09-28T19:55:01.210Z,56.87
2018-09-28T19:57:28.839Z,57.18
2018-09-28T19:59:56.391Z,58.19
2018-09-28T20:02:23.958Z,58.38
2018-09-28T20:04:51.534Z,59.02
2018-09-28T20:07:19.080Z,60.45
2018-09-28T20:09:46.706Z,61.17
2018-09-28T20:12:14.243Z,61.78
2018-09-28T20:14:41.781Z,62.78
2018-09-28T20:17:09.351Z,63.70
2018-09-28T20:19:36.899Z,64.80
2018-09-28T20:22:07.043Z,64.80
2018-09-28T20:24:34.664Z,65.73
2018-09-28T20:27:02.232Z,66.56
2018-09-28T20:29:29.825Z,67.11
2018-09-28T20:31:57.437Z,67.95
2018-09-28T20:34:25.326Z,68.22
2018-09-28T20:36:52.909Z,68.44
2018-09-28T20:39:20.430Z,68.34
2018-09-28T20:41:48.062Z,68.80
2018-09-28T20:44:15.663Z,69.36
2018-09-28T20:46:43.222Z,69.13
2018-09-28T20:49:10.833Z,69.08
2018-09-28T20:51:38.463Z,70.03
2018-09-28T20:54:06.115Z,69.89
2018-09-28T20:56:33.636Z,69.77
2018-09-28T20:59:01.989Z,70.04
2018-09-28T21:01:29.790Z,70.34
2018-09-28T21:03:57.358Z,70.72
2018-09-28T21:06:24.918Z,70.66
2018-09-28T21:08:52.488Z,71.20
2018-09-28T21:11:20.079Z,70.29
2018-09-28T21:13:47.644Z,70.73
2018-09-28T21:16:15.226Z,69.79
2018-09-28T21:18:42.766Z,69.20
2018-09-28T21:21:10.346Z,68.78
2018-09-28T21:23:37.985Z,68.46
2018-09-28T21:26:05.623Z,67.86
2018-09-28T21:28:33.191Z,68.25
2018-09-28T21:31:01.002Z,67.89
2018-09-28T21:33:28.572Z,68.20
2018-09-28T21:35:56.136Z,67.81
2018-09-28T21:38:23.826Z,67.91
2018-09-28T21:40:51.385Z,67.86
2018-09-28T21:43:18.965Z,68.26
2018-09-28T21:45:47.187Z,69.27
2018-09-28T21:48:14.740Z,70.63
2018-09-28T21:50:42.291Z,71.81
2018-09-28T21:53:09.840Z,71.30
2018-09-28T21:55:37.403Z,71.59
2018-09-28T21:58:05.645Z,70.63
2018-09-28T22:00:36.634Z,70.33
2018-09-28T22:03:04.592Z,70.00
2018-09-28T22:05:32.157Z,69.91
2018-09-28T22:07:59.838Z,70.05
2018-09-28T22:10:27.383Z,70.94
2018-09-28T22:12:54.962Z,71.08
2018-09-28T22:15:22.534Z,70.79
2018-09-28T22:17:50.116Z,70.82
2018-09-28T22:20:17.670Z,71.15
2018-09-28T22:22:45.227Z,71.59
2018-09-28T22:25:12.811Z,72.39
2018-09-28T22:27:40.359Z,72.79
2018-09-28T22:30:08.196Z,72.78
2018-09-28T22:32:35.694Z,73.44
2018-09-28T22:35:03.254Z,73.26
2018-09-28T22:37:30.835Z,73.12
2018-09-28T22:39:58.374Z,73.30
2018-09-28T22:42:25.930Z,73.63
2018-09-28T22:44:53.486Z,73.72
2018-09-28T22:47:21.074Z,74.01
2018-09-28T22:49:48.627Z,74.33
2018-09-28T22:52:16.158Z,74.48
2018-09-28T22:54:43.740Z,74.42
2018-09-28T22:57:11.302Z,74.62
2018-09-28T22:59:38.874Z,74.79
2018-09-28T23:02:06.457Z,74.95
2018-09-28T23:04:34.001Z,75.03
2018-09-28T23:07:01.589Z,75.00
2018-09-28T23:09:29.115Z,75.48
2018-09-28T23:11:56.651Z,75.27
2018-09-28T23:14:24.238Z,75.33
2018-09-28T23:16:51.801Z,75.80
2018-09-28T23:19:19.330Z,75.86
2018-09-28T23:21:47.116Z,75.73
2018-09-28T23:24:14.627Z,75.96
2018-09-28T23:26:42.201Z,76.51
2018-09-28T23:29:09.756Z,77.25
2018-09-28T23:31:37.273Z,77.83
2018-09-28T23:34:04.831Z,78.20
2018-09-28T23:36:32.346Z,78.93
2018-09-28T23:38:59.890Z,78.97
2018-09-28T23:41:27.442Z,79.70
2018-09-28T23:43:54.981Z,80.21
2018-09-28T23:46:22.565Z,80.60
2018-09-28T23:48:50.087Z,80.90
2018-09-28T23:51:17.630Z,81.30
2018-09-28T23:53:45.194Z,81.42
2018-09-28T23:56:12.716Z,81.66
2018-09-28T23:58:40.257Z,81.75
